createdAt,value
2023-03-14T00:01:38.835Z,101621.95
2023-03-14T00:04:06.580Z,101623.73
2023-03-14T00:06:33.494Z,101622.77
2023-03-14T00:09:00.386Z,101619.34
2023-03-14T00:11:27.434Z,101613.40
2023-03-14T00:13:54.346Z,101605.58
2023-03-14T00:16:21.638Z,101605.30
2023-03-14T00:18:48.855Z,101602.29
2023-03-14T00:21:16.064Z,101601.40
2023-03-14T00:23:43.788Z,101600.91
2023-03-14T00:26:16.402Z,101601.55
2023-03-14T00:28:44.579Z,101603.83
2023-03-14T00:31:13.991Z,101600.70
2023-03-14T00:33:41.953Z,101597.31
2023-03-14T00:36:16.132Z,101596.73
2023-03-14T00:38:45.004Z,101597.64
2023-03-14T00:41:16.162Z,101598.38
2023-03-14T00:43:43.618Z,101599.06
2023-03-14T00:46:11.135Z,101597.54
2023-03-14T00:48:38.839Z,101597.05
2023-03-14T00:51:07.491Z,101601.44
2023-03-14T00:53:39.567Z,101602.55
2023-03-14T00:56:10.111Z,101594.98
2023-03-14T00:58:37.977Z,101591.33
2023-03-14T01:01:14.790Z,101585.30
2023-03-14T01:03:41.741Z,101583.91
2023-03-14T01:06:18.383Z,101578.56
2023-03-14T01:08:46.346Z,101571.21
2023-03-14T01:11:17.989Z,101573.17
2023-03-14T01:13:46.830Z,101571.54
2023-03-14T01:16:16.412Z,101565.23
2023-03-14T01:18:45.199Z,101557.29
2023-03-14T01:21:22.236Z,101552.15
2023-03-14T01:23:50.435Z,101551.05
2023-03-14T01:26:20.857Z,101545.58
2023-03-14T01:28:49.243Z,101539.51
2023-03-14T01:31:16.887Z,101535.27
2023-03-14T01:33:44.286Z,101533.89
2023-03-14T01:36:12.372Z,101532.79
2023-03-14T01:38:41.124Z,101533.89
2023-03-14T01:41:15.265Z,101533.64
2023-03-14T01:43:43.541Z,101534.42
2023-03-14T01:46:21.165Z,101532.42
2023-03-14T01:49:10.251Z,101533.10
2023-03-14T01:52:02.216Z,101532.05
2023-03-14T01:54:58.457Z,101531.40
2023-03-14T01:57:33.112Z,101530.23
2023-03-14T02:00:16.424Z,101532.19
2023-03-14T02:02:47.794Z,101526.90
2023-03-14T02:05:20.866Z,101522.45
2023-03-14T02:07:56.992Z,101522.76
2023-03-14T02:10:35.807Z,101521.70
2023-03-14T02:13:06.168Z,101516.94
2023-03-14T02:15:50.595Z,101514.17
2023-03-14T02:18:36.435Z,101513.16
2023-03-14T02:21:35.659Z,101507.18
2023-03-14T02:24:25.517Z,101506.77
2023-03-14T02:27:33.002Z,101506.64
2023-03-14T02:30:13.211Z,101500.05
2023-03-14T02:32:47.353Z,101500.36
2023-03-14T02:35:19.949Z,101502.58
2023-03-14T02:37:53.087Z,101500.20
2023-03-14T02:40:21.091Z,101498.71
2023-03-14T02:42:51.398Z,101496.52
2023-03-14T02:45:18.744Z,101493.41
2023-03-14T02:48:01.250Z,101493.46
2023-03-14T02:50:34.598Z,101486.91
2023-03-14T02:53:02.334Z,101484.31
2023-03-14T02:55:29.718Z,101485.36
2023-03-14T02:57:58.754Z,101484.89
2023-03-14T03:00:26.310Z,101482.40
2023-03-14T03:02:54.845Z,101480.75
2023-03-14T03:05:21.919Z,101480.29
2023-03-14T03:07:48.838Z,101476.41
2023-03-14T03:10:16.226Z,101473.56
2023-03-14T03:12:43.312Z,101473.52
2023-03-14T03:15:12.036Z,101478.98
2023-03-14T03:17:38.989Z,101478.33
2023-03-14T03:20:09.998Z,101480.56
2023-03-14T03:22:38.434Z,101480.92
2023-03-14T03:25:07.652Z,101485.89
2023-03-14T03:27:36.446Z,101486.52
2023-03-14T03:30:06.666Z,101486.13
2023-03-14T03:32:34.099Z,101484.73
2023-03-14T03:35:01.385Z,101489.48
2023-03-14T03:37:31.821Z,101493.73
2023-03-14T03:39:59.025Z,101496.63
2023-03-14T03:42:28.277Z,101492.12
2023-03-14T03:44:55.233Z,101490.08
2023-03-14T03:47:22.697Z,101495.78
2023-03-14T03:49:49.650Z,101495.59
2023-03-14T03:52:17.955Z,101492.77
2023-03-14T03:54:45.183Z,101494.02
2023-03-14T03:57:12.094Z,101494.89
2023-03-14T03:59:41.230Z,101486.95
2023-03-14T04:02:09.030Z,101489.42
2023-03-14T04:04:36.408Z,101499.08
2023-03-14T04:07:03.933Z,101500.83
2023-03-14T04:09:30.871Z,101494.94
2023-03-14T04:12:20.508Z,101495.26
2023-03-14T04:15:01.893Z,101497.48
2023-03-14T04:17:28.802Z,101496.30
2023-03-14T04:19:55.886Z,101497.41
2023-03-14T04:22:31.066Z,101496.02
2023-03-14T04:24:58.238Z,101496.88
2023-03-14T04:27:25.354Z,101492.11
2023-03-14T04:29:52.893Z,101493.07
2023-03-14T04:32:27.460Z,101495.10
2023-03-14T04:34:54.774Z,101496.38
2023-03-14T04:37:21.750Z,101489.45
2023-03-14T04:39:48.652Z,101496.28
2023-03-14T04:42:19.790Z,101499.02
2023-03-14T04:44:48.093Z,101496.22
2023-03-14T04:47:16.022Z,101499.56
2023-03-14T04:49:44.387Z,101505.33
2023-03-14T04:52:13.673Z,101499.68
2023-03-14T04:54:40.628Z,101498.54
2023-03-14T04:57:07.882Z,101499.61
2023-03-14T04:59:37.008Z,101497.27
2023-03-14T05:02:17.148Z,101496.06
2023-03-14T05:05:04.746Z,101498.36
2023-03-14T05:08:03.437Z,101497.29
2023-03-14T05:10:41.918Z,101493.11
2023-03-14T05:13:26.652Z,101488.95
2023-03-14T05:16:18.230Z,101484.88
2023-03-14T05:18:53.615Z,101485.80
2023-03-14T05:21:36.488Z,101480.59
2023-03-14T05:24:22.140Z,101476.08
2023-03-14T05:26:52.054Z,101474.56
2023-03-14T05:29:45.288Z,101474.06
2023-03-14T05:32:30.609Z,101469.23
2023-03-14T05:35:09.849Z,101468.39
2023-03-14T05:38:08.726Z,101463.10
2023-03-14T05:40:47.901Z,101460.00
2023-03-14T05:43:35.263Z,101458.20
2023-03-14T05:46:20.530Z,101457.01
2023-03-14T05:48:58.990Z,101456.10
2023-03-14T05:51:44.777Z,101450.06
2023-03-14T05:54:36.829Z,101452.29
2023-03-14T05:57:26.916Z,101447.36
2023-03-14T06:00:13.508Z,101447.29
2023-03-14T06:02:41.968Z,101444.19
2023-03-14T06:05:15.079Z,101445.49
2023-03-14T06:07:42.294Z,101444.94
2023-03-14T06:10:10.059Z,101445.34
2023-03-14T06:12:37.627Z,101448.39
2023-03-14T06:15:06.493Z,101440.44
2023-03-14T06:17:34.361Z,101442.81
2023-03-14T06:20:13.514Z,101441.09
2023-03-14T06:22:41.696Z,101442.35
2023-03-14T06:25:09.810Z,101442.69
2023-03-14T06:27:37.094Z,101443.74
2023-03-14T06:30:13.429Z,101444.38
2023-03-14T06:32:40.450Z,101448.39
2023-03-14T06:35:10.385Z,101446.05
2023-03-14T06:37:40.642Z,101440.44
2023-03-14T06:40:08.555Z,101445.61
2023-03-14T06:42:49.506Z,101437.91
2023-03-14T06:45:17.314Z,101433.79
2023-03-14T06:47:44.426Z,101432.67
2023-03-14T06:50:12.226Z,101429.61
2023-03-14T06:52:42.488Z,101427.27
2023-03-14T06:55:10.321Z,101425.91
2023-03-14T06:57:37.532Z,101430.16
2023-03-14T07:00:05.992Z,101426.42
2023-03-14T07:02:42.678Z,101418.88
2023-03-14T07:05:19.063Z,101425.41
2023-03-14T07:07:46.057Z,101419.33
2023-03-14T07:10:13.014Z,101419.68
2023-03-14T07:12:40.304Z,101419.36
2023-03-14T07:15:18.239Z,101416.74
2023-03-14T07:17:49.430Z,101416.54
2023-03-14T07:20:18.319Z,101419.36
2023-03-14T07:22:49.342Z,101418.27
2023-03-14T07:25:17.845Z,101420.34
2023-03-14T07:27:46.056Z,101418.76
2023-03-14T07:30:13.986Z,101409.77
2023-03-14T07:32:41.391Z,101412.46
2023-03-14T07:35:09.216Z,101404.95
2023-03-14T07:37:37.678Z,101397.65
2023-03-14T07:40:08.288Z,101400.41
2023-03-14T07:42:36.429Z,101399.58
2023-03-14T07:45:18.224Z,101396.14
2023-03-14T07:47:45.486Z,101397.00
2023-03-14T07:50:12.434Z,101394.84
2023-03-14T07:52:39.381Z,101396.44
2023-03-14T07:55:07.220Z,101395.02
2023-03-14T07:57:34.107Z,101394.64
2023-03-14T08:00:01.034Z,101393.16
2023-03-14T08:02:28.029Z,101388.81
2023-03-14T08:04:55.176Z,101383.80
2023-03-14T08:07:22.127Z,101387.63
2023-03-14T08:09:49.769Z,101386.84
2023-03-14T08:12:17.562Z,101381.64
2023-03-14T08:14:44.503Z,101392.08
2023-03-14T08:17:11.443Z,101398.95
2023-03-14T08:19:38.369Z,101395.30
2023-03-14T08:22:05.951Z,101393.65
2023-03-14T08:24:33.020Z,101389.20
2023-03-14T08:27:00.220Z,101388.19
2023-03-14T08:29:27.525Z,101381.64
2023-03-14T08:31:56.189Z,101376.55
2023-03-14T08:34:23.193Z,101363.92
2023-03-14T08:36:50.120Z,101366.59
2023-03-14T08:39:17.084Z,101363.96
2023-03-14T08:41:45.648Z,101362.95
2023-03-14T08:44:12.786Z,101357.65
2023-03-14T08:46:39.919Z,101361.23
2023-03-14T08:49:06.864Z,101359.46
2023-03-14T08:51:39.474Z,101359.46
2023-03-14T08:54:06.530Z,101357.22
2023-03-14T08:56:33.510Z,101359.81
2023-03-14T08:59:00.331Z,101352.42
2023-03-14T09:01:27.459Z,101355.60
2023-03-14T09:03:54.459Z,101352.40
2023-03-14T09:06:21.394Z,101350.18
2023-03-14T09:08:48.309Z,101347.71
2023-03-14T09:11:15.756Z,101343.55
2023-03-14T09:13:42.617Z,101339.77
2023-03-14T09:16:10.106Z,101339.87
2023-03-14T09:18:37.675Z,101342.64
2023-03-14T09:21:04.856Z,101341.13
2023-03-14T09:23:31.945Z,101345.48
2023-03-14T09:26:00.161Z,101345.28
2023-03-14T09:28:27.492Z,101344.49
2023-03-14T09:30:56.063Z,101338.63
2023-03-14T09:33:23.115Z,101334.20
2023-03-14T09:35:50.059Z,101333.10
2023-03-14T09:38:17.574Z,101327.40
2023-03-14T09:40:44.536Z,101322.50
2023-03-14T09:43:15.444Z,101314.40
2023-03-14T09:45:46.733Z,101312.34
2023-03-14T09:48:18.021Z,101314.35
2023-03-14T09:50:53.510Z,101311.92
2023-03-14T09:53:25.734Z,101308.61
2023-03-14T09:55:56.287Z,101307.29
2023-03-14T09:58:25.246Z,101307.23
2023-03-14T10:00:56.440Z,101305.55
2023-03-14T10:03:34.622Z,101304.43
2023-03-14T10:06:01.957Z,101309.38
2023-03-14T10:08:29.063Z,101312.17
2023-03-14T10:10:56.135Z,101310.27
2023-03-14T10:13:29.110Z,101306.94
2023-03-14T10:16:01.610Z,101307.73
2023-03-14T10:18:31.325Z,101303.13
2023-03-14T10:21:10.746Z,101302.55
2023-03-14T10:23:38.799Z,101300.48
2023-03-14T10:26:24.515Z,101297.79
2023-03-14T10:29:04.584Z,101285.98
2023-03-14T10:31:49.778Z,101287.61
2023-03-14T10:34:22.599Z,101286.72
2023-03-14T10:36:55.152Z,101288.01
2023-03-14T10:39:26.957Z,101291.39
2023-03-14T10:41:57.381Z,101288.91
2023-03-14T10:44:26.902Z,101288.27
2023-03-14T10:47:05.665Z,101290.71
2023-03-14T10:49:36.168Z,101287.86
2023-03-14T10:52:30.909Z,101280.65
2023-03-14T10:55:11.599Z,101275.48
2023-03-14T10:57:42.958Z,101268.38
2023-03-14T11:00:19.140Z,101265.84
2023-03-14T11:03:07.569Z,101267.15
2023-03-14T11:05:39.954Z,101267.23
2023-03-14T11:08:22.200Z,101266.64
2023-03-14T11:10:55.353Z,101270.57
2023-03-14T11:13:58.358Z,101270.37
2023-03-14T11:16:34.124Z,101261.84
2023-03-14T11:19:18.778Z,101256.48
2023-03-14T11:21:45.629Z,101251.98
2023-03-14T11:24:20.320Z,101252.95
2023-03-14T11:27:22.936Z,101248.92
2023-03-14T11:30:14.727Z,101239.92
2023-03-14T11:33:04.957Z,101223.79
2023-03-14T11:35:35.608Z,101222.46
2023-03-14T11:38:25.622Z,101220.45
2023-03-14T11:40:54.417Z,101211.34
2023-03-14T11:43:32.198Z,101207.23
2023-03-14T11:46:22.174Z,101196.36
2023-03-14T11:49:02.910Z,101187.45
2023-03-14T11:51:35.552Z,101180.85
2023-03-14T11:54:27.085Z,101175.42
2023-03-14T11:56:59.429Z,101171.30
2023-03-14T11:59:31.238Z,101164.03
2023-03-14T12:02:07.744Z,101155.98
2023-03-14T12:04:48.156Z,101143.35
2023-03-14T12:07:26.795Z,101141.48
2023-03-14T12:09:56.613Z,101136.78
2023-03-14T12:12:27.025Z,101130.16
2023-03-14T12:15:02.750Z,101124.77
2023-03-14T12:17:37.050Z,101116.55
2023-03-14T12:20:16.873Z,101113.22
2023-03-14T12:22:44.864Z,101106.17
2023-03-14T12:25:22.368Z,101098.39
2023-03-14T12:27:58.348Z,101094.59
2023-03-14T12:30:33.794Z,101097.77
2023-03-14T12:33:19.063Z,101095.66
2023-03-14T12:35:51.882Z,101099.95
2023-03-14T12:38:24.741Z,101095.23
2023-03-14T12:41:15.874Z,101095.55
2023-03-14T12:43:43.185Z,101088.20
2023-03-14T12:46:19.167Z,101085.55
2023-03-14T12:48:52.295Z,101081.20
2023-03-14T12:51:21.918Z,101080.89
2023-03-14T12:54:25.556Z,101075.80
2023-03-14T12:57:05.651Z,101071.17
2023-03-14T12:59:38.919Z,101061.38
2023-03-14T13:02:09.215Z,101049.58
2023-03-14T13:05:03.707Z,101040.02
2023-03-14T13:07:56.172Z,101026.14
2023-03-14T13:10:27.556Z,101016.45
2023-03-14T13:13:09.784Z,101012.21
2023-03-14T13:15:42.279Z,101013.73
2023-03-14T13:18:34.218Z,101012.92
2023-03-14T13:21:17.555Z,101010.27
2023-03-14T13:24:02.614Z,101002.12
2023-03-14T13:26:57.080Z,100996.71
2023-03-14T13:29:29.546Z,100996.13
2023-03-14T13:31:59.320Z,100996.60
2023-03-14T13:34:29.665Z,100995.59
2023-03-14T13:36:57.590Z,100988.33
2023-03-14T13:39:27.506Z,100986.79
2023-03-14T13:41:55.394Z,100975.97
2023-03-14T13:44:26.819Z,100967.61
2023-03-14T13:47:00.025Z,100961.45
2023-03-14T13:49:28.876Z,100956.96
2023-03-14T13:51:56.363Z,100959.13
2023-03-14T13:54:24.069Z,100955.08
2023-03-14T13:57:04.563Z,100952.95
2023-03-14T13:59:34.514Z,100952.39
2023-03-14T14:02:10.766Z,100951.68
2023-03-14T14:04:38.648Z,100949.63
2023-03-14T14:07:14.330Z,100950.73
2023-03-14T14:09:48.753Z,100945.54
2023-03-14T14:12:30.767Z,100946.40
2023-03-14T14:15:07.148Z,100944.02
2023-03-14T14:17:37.199Z,100940.55
2023-03-14T14:20:10.322Z,100937.48
2023-03-14T14:22:37.445Z,100926.31
2023-03-14T14:25:05.272Z,100921.54
2023-03-14T14:27:40.367Z,100918.09
2023-03-14T14:30:32.415Z,100925.45
2023-03-14T14:33:17.415Z,100936.12
2023-03-14T14:35:57.639Z,100936.27
2023-03-14T14:38:26.069Z,100932.57
2023-03-14T14:41:01.093Z,100929.45
2023-03-14T14:43:40.117Z,100927.59
2023-03-14T14:46:09.626Z,100928.38
2023-03-14T14:48:40.926Z,100930.17
2023-03-14T14:51:08.674Z,100926.05
2023-03-14T14:53:44.427Z,100932.23
2023-03-14T14:56:27.102Z,100929.02
2023-03-14T14:59:03.014Z,100927.58
2023-03-14T15:01:40.500Z,100922.93
2023-03-14T15:04:14.995Z,100921.02
2023-03-14T15:06:49.297Z,100914.73
2023-03-14T15:09:18.436Z,100908.16
2023-03-14T15:11:45.596Z,100902.56
2023-03-14T15:14:12.455Z,100904.46
2023-03-14T15:16:41.426Z,100906.68
2023-03-14T15:19:27.063Z,100894.88
2023-03-14T15:21:54.973Z,100884.19
2023-03-14T15:24:22.781Z,100887.10
2023-03-14T15:26:49.943Z,100882.50
2023-03-14T15:29:16.897Z,100874.45
2023-03-14T15:31:45.172Z,100864.36
2023-03-14T15:34:12.408Z,100862.58
2023-03-14T15:36:39.893Z,100850.16
2023-03-14T15:39:07.902Z,100842.27
2023-03-14T15:41:35.600Z,100844.13
2023-03-14T15:44:02.589Z,100844.77
2023-03-14T15:46:31.172Z,100845.77
2023-03-14T15:48:58.440Z,100840.21
2023-03-14T15:51:25.462Z,100830.15
2023-03-14T15:53:52.963Z,100830.00
2023-03-14T15:56:26.197Z,100833.81
2023-03-14T15:58:53.329Z,100830.33
2023-03-14T16:01:20.361Z,100831.75
2023-03-14T16:03:47.626Z,100833.77
2023-03-14T16:06:15.136Z,100842.18
2023-03-14T16:08:45.823Z,100840.23
2023-03-14T16:11:15.369Z,100842.24
2023-03-14T16:13:42.539Z,100841.07
2023-03-14T16:16:10.558Z,100841.91
2023-03-14T16:18:39.633Z,100842.70
2023-03-14T16:21:09.669Z,100836.04
2023-03-14T16:23:37.081Z,100834.98
2023-03-14T16:26:09.587Z,100839.33
2023-03-14T16:28:36.534Z,100842.13
2023-03-14T16:31:06.001Z,100845.99
2023-03-14T16:33:34.434Z,100850.70
2023-03-14T16:36:08.878Z,100853.03
2023-03-14T16:38:37.787Z,100858.01
2023-03-14T16:41:08.093Z,100864.40
2023-03-14T16:43:37.364Z,100862.13
2023-03-14T16:46:06.539Z,100865.09
2023-03-14T16:48:34.053Z,100866.37
2023-03-14T16:51:01.541Z,100867.37
2023-03-14T16:53:30.348Z,100873.41
2023-03-14T16:55:59.955Z,100875.26
2023-03-14T16:58:27.718Z,100869.37
2023-03-14T17:00:54.773Z,100872.53
2023-03-14T17:03:22.573Z,100872.53
2023-03-14T17:05:52.214Z,100867.35
2023-03-14T17:08:20.462Z,100867.27
2023-03-14T17:10:47.504Z,100868.22
2023-03-14T17:13:14.695Z,100869.86
2023-03-14T17:15:53.749Z,100860.20
2023-03-14T17:18:20.669Z,100857.09
2023-03-14T17:20:47.525Z,100854.13
2023-03-14T17:23:14.577Z,100854.97
2023-03-14T17:25:41.523Z,100854.48
2023-03-14T17:28:08.858Z,100851.70
2023-03-14T17:30:36.006Z,100859.58
2023-03-14T17:33:02.998Z,100858.52
2023-03-14T17:35:29.976Z,100855.71
2023-03-14T17:37:57.027Z,100859.79
2023-03-14T17:40:24.504Z,100859.19
2023-03-14T17:42:52.652Z,100859.48
2023-03-14T17:45:19.631Z,100862.77
2023-03-14T17:47:47.048Z,100860.89
2023-03-14T17:50:14.552Z,100860.25
2023-03-14T17:52:41.983Z,100862.43
2023-03-14T17:55:09.401Z,100871.66
2023-03-14T17:57:40.349Z,100868.84
2023-03-14T18:00:11.690Z,100875.45
2023-03-14T18:02:40.505Z,100876.62
2023-03-14T18:05:07.970Z,100875.14
2023-03-14T18:07:35.845Z,100879.85
2023-03-14T18:10:04.272Z,100879.16
2023-03-14T18:12:31.209Z,100883.20
2023-03-14T18:14:58.134Z,100878.06
2023-03-14T18:17:25.070Z,100884.05
2023-03-14T18:19:52.013Z,100883.67
2023-03-14T18:22:18.871Z,100886.05
2023-03-14T18:24:46.265Z,100888.75
2023-03-14T18:27:14.614Z,100892.35
2023-03-14T18:29:42.486Z,100893.73
2023-03-14T18:32:10.483Z,100892.20
2023-03-14T18:34:37.754Z,100894.20
2023-03-14T18:37:04.823Z,100896.59
2023-03-14T18:39:31.687Z,100893.84
2023-03-14T18:41:58.589Z,100894.25
2023-03-14T18:44:25.793Z,100894.09
2023-03-14T18:46:52.745Z,100900.98
2023-03-14T18:49:21.329Z,100904.04
2023-03-14T18:51:48.974Z,100904.98
2023-03-14T18:54:15.895Z,100901.49
2023-03-14T18:56:43.046Z,100906.59
2023-03-14T18:59:10.711Z,100907.73
2023-03-14T19:01:37.782Z,100908.20
2023-03-14T19:04:05.757Z,100906.40
2023-03-14T19:06:33.454Z,100907.30
2023-03-14T19:09:01.605Z,100905.98
2023-03-14T19:11:28.892Z,100904.96
2023-03-14T19:44:16.295Z,100902.05
2023-03-14T19:46:44.035Z,100903.71
2023-03-14T19:49:11.808Z,100900.65
2023-03-14T19:51:38.874Z,100901.20
2023-03-14T19:54:05.858Z,100906.73
2023-03-14T19:56:33.738Z,100911.77
2023-03-14T19:59:03.431Z,100913.55
2023-03-14T20:01:31.771Z,100915.80
2023-03-14T20:03:58.935Z,100911.45
2023-03-14T20:06:26.058Z,100912.98
2023-03-14T20:08:53.089Z,100911.97
2023-03-14T20:11:20.679Z,100909.55
2023-03-14T20:13:48.453Z,100907.73
2023-03-14T20:16:16.294Z,100909.16
2023-03-14T20:18:44.222Z,100916.89
2023-03-14T20:21:15.681Z,100920.44
2023-03-14T20:23:44.681Z,100918.02
2023-03-14T20:26:12.130Z,100919.44
2023-03-14T20:28:39.470Z,100915.52
2023-03-14T20:31:08.305Z,100908.45
2023-03-14T20:33:35.626Z,100907.74
2023-03-14T20:36:03.230Z,100908.08
2023-03-14T20:38:31.223Z,100909.86
2023-03-14T20:41:00.020Z,100906.33
2023-03-14T20:43:27.997Z,100907.06
2023-03-14T20:45:57.183Z,100908.69
2023-03-14T20:48:25.865Z,100912.03
2023-03-14T20:50:54.045Z,100908.86
2023-03-14T20:53:22.496Z,100904.59
2023-03-14T20:55:50.524Z,100907.02
2023-03-14T20:58:18.111Z,100911.55
2023-03-14T21:00:49.951Z,100902.68
2023-03-14T21:03:18.987Z,100902.09
2023-03-14T21:05:47.747Z,100899.55
2023-03-14T21:08:17.147Z,100894.46
2023-03-14T21:10:47.093Z,100898.48
2023-03-14T21:13:14.133Z,100893.15
2023-03-14T21:15:41.186Z,100897.50
2023-03-14T21:18:08.134Z,100902.63
2023-03-14T21:20:36.913Z,100902.84
2023-03-14T21:23:07.266Z,100896.01
2023-03-14T21:25:35.834Z,100894.05
2023-03-14T21:28:05.836Z,100892.68
2023-03-14T21:30:34.750Z,100891.95
2023-03-14T21:33:02.309Z,100891.84
2023-03-14T21:35:29.393Z,100894.42
2023-03-14T21:37:56.281Z,100892.90
2023-03-14T21:40:24.552Z,100902.04
2023-03-14T21:42:54.923Z,100901.95
2023-03-14T21:45:27.359Z,100893.95
2023-03-14T21:47:54.808Z,100892.90
2023-03-14T21:50:26.011Z,100893.32
2023-03-14T21:52:57.238Z,100886.96
2023-03-14T21:55:27.640Z,100882.72
2023-03-14T21:57:56.097Z,100874.42
2023-03-14T22:00:26.165Z,100870.02
2023-03-14T22:03:11.864Z,100874.20
2023-03-14T22:05:43.161Z,100874.95
2023-03-14T22:08:10.541Z,100876.11
2023-03-14T22:10:44.069Z,100882.83
2023-03-14T22:13:11.184Z,100875.05
2023-03-14T22:15:38.670Z,100863.77
2023-03-14T22:18:05.658Z,100861.71
2023-03-14T22:20:33.827Z,100861.23
2023-03-14T22:23:00.732Z,100860.29
2023-03-14T22:25:28.072Z,100856.58
2023-03-14T22:27:54.992Z,100852.71
2023-03-14T22:30:22.046Z,100855.27
2023-03-14T22:32:49.023Z,100856.32
2023-03-14T22:35:15.990Z,100852.83
2023-03-14T22:37:42.954Z,100851.77
2023-03-14T22:40:10.656Z,100846.85
2023-03-14T22:42:37.566Z,100847.33
2023-03-14T22:45:05.217Z,100846.79
2023-03-14T22:47:32.147Z,100839.16
2023-03-14T22:49:59.092Z,100830.90
2023-03-14T22:52:26.048Z,100827.21
2023-03-14T22:54:56.080Z,100827.83
2023-03-14T22:57:23.251Z,100826.56
2023-03-14T22:59:50.365Z,100836.40
2023-03-14T23:02:17.620Z,100827.44
2023-03-14T23:04:44.992Z,100833.55
2023-03-14T23:07:12.080Z,100826.56
2023-03-14T23:09:40.038Z,100821.59
2023-03-14T23:12:09.108Z,100818.25
2023-03-14T23:14:36.083Z,100826.23
2023-03-14T23:17:05.746Z,100831.22
2023-03-14T23:19:32.783Z,100827.46
2023-03-14T23:21:59.807Z,100824.27
2023-03-14T23:24:26.948Z,100819.51
2023-03-14T23:26:54.336Z,100827.82
2023-03-14T23:29:21.186Z,100836.30
2023-03-14T23:31:48.335Z,100840.20
2023-03-14T23:34:15.281Z,100839.20
2023-03-14T23:36:42.419Z,100833.65
2023-03-14T23:39:10.311Z,100831.58
2023-03-14T23:41:37.382Z,100827.98
2023-03-14T23:44:04.538Z,100827.27
2023-03-14T23:46:31.787Z,100824.30
2023-03-14T23:48:58.984Z,100826.53
2023-03-14T23:51:25.951Z,100824.06
2023-03-14T23:53:52.814Z,100820.61
2023-03-14T23:56:19.761Z,100815.27
2023-03-14T23:58:46.737Z,100816.08
